Terminal Aerodrome Forecast
Issued by NWS

Home | Current Version | Previous Version | Text Only | Print | Product List | Glossary On
Versions: 1 2 3 4 5 6 7 8 9 10 11 12 13
000
FTUS45 KRIW 192300
TAFRKS
TAF
KRKS 192320Z 2000/2024 18011KT P6SM VCTS SCT060CB BKN080
     FM200200 33007KT P6SM -SHRA OVC060
     FM201100 23008KT P6SM VCSH SCT080 BKN120
     FM201400 28011KT P6SM SCT120
     FM202200 VRB11G25KT P6SM VCTS FEW050CB BKN070=

USA.gov is the U.S. government's official web portal to all federal, state and local government web resources and services.